sensor_id;sensor_type;location;lat;lon;timestamp;P1;durP1;ratioP1;P2;durP2;ratioP2
50092;SDS011;35974;47.752;10.290;2022-07-19T00:02:27;2.60;;;2.25;;
50092;SDS011;35974;47.752;10.290;2022-07-19T00:04:55;2.55;;;2.22;;
50092;SDS011;35974;47.752;10.290;2022-07-19T00:07:21;2.78;;;2.47;;
50092;SDS011;35974;47.752;10.290;2022-07-19T00:09:47;2.78;;;2.22;;
50092;SDS011;35974;47.752;10.290;2022-07-19T00:12:14;2.13;;;1.92;;
50092;SDS011;35974;47.752;10.290;2022-07-19T00:14:41;4.53;;;2.10;;
50092;SDS011;35974;47.752;10.290;2022-07-19T00:17:08;3.97;;;2.17;;
50092;SDS011;35974;47.752;10.290;2022-07-19T00:19:35;3.75;;;2.30;;
50092;SDS011;35974;47.752;10.290;2022-07-19T00:22:03;3.08;;;2.20;;
50092;SDS011;35974;47.752;10.290;2022-07-19T00:24:30;3.88;;;2.03;;
50092;SDS011;35974;47.752;10.290;2022-07-19T00:26:56;2.90;;;1.95;;
50092;SDS011;35974;47.752;10.290;2022-07-19T00:29:23;2.60;;;2.13;;
50092;SDS011;35974;47.752;10.290;2022-07-19T00:31:49;2.95;;;2.20;;
50092;SDS011;35974;47.752;10.290;2022-07-19T00:34:19;4.28;;;2.45;;
50092;SDS011;35974;47.752;10.290;2022-07-19T00:36:46;3.55;;;2.28;;
50092;SDS011;35974;47.752;10.290;2022-07-19T00:39:12;3.40;;;2.40;;
50092;SDS011;35974;47.752;10.290;2022-07-19T00:41:40;3.95;;;2.40;;
50092;SDS011;35974;47.752;10.290;2022-07-19T00:44:08;4.30;;;2.60;;
50092;SDS011;35974;47.752;10.290;2022-07-19T00:46:36;3.70;;;2.30;;
50092;SDS011;35974;47.752;10.290;2022-07-19T00:49:04;4.55;;;2.58;;
50092;SDS011;35974;47.752;10.290;2022-07-19T00:51:33;3.95;;;2.67;;
50092;SDS011;35974;47.752;10.290;2022-07-19T00:54:01;2.92;;;2.47;;
50092;SDS011;35974;47.752;10.290;2022-07-19T00:56:30;2.47;;;2.28;;
50092;SDS011;35974;47.752;10.290;2022-07-19T00:58:59;3.45;;;2.60;;
50092;SDS011;35974;47.752;10.290;2022-07-19T01:01:28;2.75;;;2.40;;
50092;SDS011;35974;47.752;10.290;2022-07-19T01:03:54;3.33;;;2.53;;
50092;SDS011;35974;47.752;10.290;2022-07-19T01:06:22;2.50;;;2.30;;
50092;SDS011;35974;47.752;10.290;2022-07-19T01:08:49;2.90;;;2.40;;
50092;SDS011;35974;47.752;10.290;2022-07-19T01:11:15;3.05;;;2.50;;
50092;SDS011;35974;47.752;10.290;2022-07-19T01:13:42;4.15;;;3.00;;
50092;SDS011;35974;47.752;10.290;2022-07-19T01:16:08;3.33;;;2.67;;
50092;SDS011;35974;47.752;10.290;2022-07-19T01:18:35;5.70;;;2.97;;
50092;SDS011;35974;47.752;10.290;2022-07-19T01:21:01;4.80;;;2.80;;
50092;SDS011;35974;47.752;10.290;2022-07-19T01:23:30;4.32;;;2.80;;
50092;SDS011;35974;47.752;10.290;2022-07-19T01:25:56;2.95;;;2.65;;
50092;SDS011;35974;47.752;10.290;2022-07-19T01:28:23;3.47;;;2.80;;
50092;SDS011;35974;47.752;10.290;2022-07-19T01:30:49;4.13;;;2.58;;
50092;SDS011;35974;47.752;10.290;2022-07-19T01:33:17;3.17;;;2.50;;
50092;SDS011;35974;47.752;10.290;2022-07-19T01:35:43;3.67;;;2.42;;
50092;SDS011;35974;47.752;10.290;2022-07-19T01:38:10;3.40;;;2.40;;
50092;SDS011;35974;47.752;10.290;2022-07-19T01:40:36;3.78;;;2.53;;
50092;SDS011;35974;47.752;10.290;2022-07-19T01:43:03;4.90;;;2.67;;
50092;SDS011;35974;47.752;10.290;2022-07-19T01:45:29;3.53;;;2.75;;
50092;SDS011;35974;47.752;10.290;2022-07-19T01:47:56;5.15;;;2.58;;
50092;SDS011;35974;47.752;10.290;2022-07-19T01:50:22;3.72;;;2.60;;
50092;SDS011;35974;47.752;10.290;2022-07-19T01:52:49;3.78;;;2.78;;
50092;SDS011;35974;47.752;10.290;2022-07-19T01:55:17;4.30;;;2.50;;
50092;SDS011;35974;47.752;10.290;2022-07-19T01:57:45;3.80;;;3.00;;
50092;SDS011;35974;47.752;10.290;2022-07-19T02:00:12;4.47;;;3.00;;
50092;SDS011;35974;47.752;10.290;2022-07-19T02:02:39;4.10;;;2.92;;
50092;SDS011;35974;47.752;10.290;2022-07-19T02:05:06;4.50;;;2.95;;
50092;SDS011;35974;47.752;10.290;2022-07-19T02:07:35;3.88;;;3.10;;
50092;SDS011;35974;47.752;10.290;2022-07-19T02:10:04;3.30;;;2.90;;
50092;SDS011;35974;47.752;10.290;2022-07-19T02:12:31;3.58;;;2.80;;
50092;SDS011;35974;47.752;10.290;2022-07-19T02:14:57;4.07;;;2.55;;
50092;SDS011;35974;47.752;10.290;2022-07-19T02:17:24;3.03;;;2.72;;
50092;SDS011;35974;47.752;10.290;2022-07-19T02:19:50;4.93;;;2.92;;
50092;SDS011;35974;47.752;10.290;2022-07-19T02:22:16;3.20;;;2.50;;
50092;SDS011;35974;47.752;10.290;2022-07-19T02:24:43;3.72;;;2.65;;
50092;SDS011;35974;47.752;10.290;2022-07-19T02:27:10;8.50;;;3.50;;
50092;SDS011;35974;47.752;10.290;2022-07-19T02:29:38;5.20;;;2.95;;
50092;SDS011;35974;47.752;10.290;2022-07-19T02:32:04;3.05;;;2.38;;
50092;SDS011;35974;47.752;10.290;2022-07-19T02:34:32;3.10;;;2.63;;
50092;SDS011;35974;47.752;10.290;2022-07-19T02:36:59;4.20;;;2.60;;
50092;SDS011;35974;47.752;10.290;2022-07-19T02:39:26;5.07;;;2.95;;
50092;SDS011;35974;47.752;10.290;2022-07-19T02:41:52;3.83;;;2.70;;
50092;SDS011;35974;47.752;10.290;2022-07-19T02:44:19;3.15;;;2.63;;
50092;SDS011;35974;47.752;10.290;2022-07-19T02:46:45;5.53;;;2.97;;
50092;SDS011;35974;47.752;10.290;2022-07-19T02:49:12;3.53;;;2.90;;
50092;SDS011;35974;47.752;10.290;2022-07-19T02:51:38;4.60;;;2.83;;
50092;SDS011;35974;47.752;10.290;2022-07-19T02:54:05;5.10;;;3.33;;
50092;SDS011;35974;47.752;10.290;2022-07-19T02:56:31;3.58;;;2.92;;
50092;SDS011;35974;47.752;10.290;2022-07-19T02:58:58;3.97;;;3.03;;
50092;SDS011;35974;47.752;10.290;2022-07-19T03:01:25;4.40;;;2.85;;
50092;SDS011;35974;47.752;10.290;2022-07-19T03:03:51;5.20;;;2.72;;
50092;SDS011;35974;47.752;10.290;2022-07-19T03:06:18;4.25;;;2.92;;
50092;SDS011;35974;47.752;10.290;2022-07-19T03:08:45;4.72;;;3.03;;
50092;SDS011;35974;47.752;10.290;2022-07-19T03:11:12;3.88;;;2.80;;
50092;SDS011;35974;47.752;10.290;2022-07-19T03:13:39;4.82;;;2.85;;
50092;SDS011;35974;47.752;10.290;2022-07-19T03:16:06;2.95;;;2.65;;
50092;SDS011;35974;47.752;10.290;2022-07-19T03:18:33;4.55;;;3.15;;
50092;SDS011;35974;47.752;10.290;2022-07-19T03:21:00;4.50;;;3.33;;
50092;SDS011;35974;47.752;10.290;2022-07-19T03:23:27;4.95;;;2.80;;
50092;SDS011;35974;47.752;10.290;2022-07-19T03:25:56;3.72;;;2.85;;
50092;SDS011;35974;47.752;10.290;2022-07-19T03:28:23;5.20;;;2.95;;
50092;SDS011;35974;47.752;10.290;2022-07-19T03:30:49;3.83;;;2.90;;
50092;SDS011;35974;47.752;10.290;2022-07-19T03:33:16;4.30;;;2.70;;
50092;SDS011;35974;47.752;10.290;2022-07-19T03:35:43;3.05;;;2.70;;
50092;SDS011;35974;47.752;10.290;2022-07-19T03:38:11;3.97;;;3.20;;
50092;SDS011;35974;47.752;10.290;2022-07-19T03:40:39;3.03;;;2.75;;
50092;SDS011;35974;47.752;10.290;2022-07-19T03:43:06;3.15;;;2.80;;
50092;SDS011;35974;47.752;10.290;2022-07-19T03:45:32;4.97;;;3.38;;
50092;SDS011;35974;47.752;10.290;2022-07-19T03:48:00;3.65;;;3.05;;
50092;SDS011;35974;47.752;10.290;2022-07-19T03:50:27;6.38;;;3.65;;
50092;SDS011;35974;47.752;10.290;2022-07-19T03:52:54;7.72;;;4.10;;
50092;SDS011;35974;47.752;10.290;2022-07-19T03:55:22;5.88;;;3.83;;
50092;SDS011;35974;47.752;10.290;2022-07-19T03:57:48;5.85;;;3.90;;
50092;SDS011;35974;47.752;10.290;2022-07-19T04:00:15;6.72;;;3.80;;
50092;SDS011;35974;47.752;10.290;2022-07-19T04:02:43;4.85;;;3.72;;
50092;SDS011;35974;47.752;10.290;2022-07-19T04:05:09;5.32;;;3.95;;
50092;SDS011;35974;47.752;10.290;2022-07-19T04:07:42;5.10;;;3.78;;
50092;SDS011;35974;47.752;10.290;2022-07-19T04:10:08;6.22;;;3.30;;
50092;SDS011;35974;47.752;10.290;2022-07-19T04:12:35;4.65;;;3.58;;
50092;SDS011;35974;47.752;10.290;2022-07-19T04:15:04;5.60;;;3.28;;
50092;SDS011;35974;47.752;10.290;2022-07-19T04:17:34;6.70;;;3.55;;
50092;SDS011;35974;47.752;10.290;2022-07-19T04:20:03;4.97;;;3.60;;
50092;SDS011;35974;47.752;10.290;2022-07-19T04:22:31;3.65;;;3.28;;
50092;SDS011;35974;47.752;10.290;2022-07-19T04:24:59;4.45;;;3.00;;
50092;SDS011;35974;47.752;10.290;2022-07-19T04:27:28;3.55;;;3.10;;
50092;SDS011;35974;47.752;10.290;2022-07-19T04:29:59;5.13;;;3.70;;
50092;SDS011;35974;47.752;10.290;2022-07-19T04:32:27;5.55;;;3.22;;
50092;SDS011;35974;47.752;10.290;2022-07-19T04:34:56;6.25;;;3.47;;
50092;SDS011;35974;47.752;10.290;2022-07-19T04:37:22;5.60;;;3.40;;
50092;SDS011;35974;47.752;10.290;2022-07-19T04:39:49;6.93;;;4.10;;
50092;SDS011;35974;47.752;10.290;2022-07-19T04:42:16;5.47;;;3.60;;
50092;SDS011;35974;47.752;10.290;2022-07-19T04:44:42;6.68;;;4.05;;
50092;SDS011;35974;47.752;10.290;2022-07-19T04:47:12;6.40;;;3.88;;
50092;SDS011;35974;47.752;10.290;2022-07-19T04:49:39;5.68;;;4.32;;
50092;SDS011;35974;47.752;10.290;2022-07-19T04:52:06;6.00;;;4.15;;
50092;SDS011;35974;47.752;10.290;2022-07-19T04:54:32;9.50;;;3.85;;
50092;SDS011;35974;47.752;10.290;2022-07-19T04:56:59;5.47;;;3.92;;
50092;SDS011;35974;47.752;10.290;2022-07-19T04:59:26;4.35;;;3.78;;
50092;SDS011;35974;47.752;10.290;2022-07-19T05:01:52;5.50;;;3.38;;
50092;SDS011;35974;47.752;10.290;2022-07-19T05:04:20;4.20;;;3.53;;
50092;SDS011;35974;47.752;10.290;2022-07-19T05:06:47;4.13;;;3.60;;
50092;SDS011;35974;47.752;10.290;2022-07-19T05:09:15;8.35;;;4.63;;
50092;SDS011;35974;47.752;10.290;2022-07-19T05:11:43;5.97;;;4.72;;
50092;SDS011;35974;47.752;10.290;2022-07-19T05:14:16;10.02;;;4.80;;
50092;SDS011;35974;47.752;10.290;2022-07-19T05:16:43;4.95;;;4.20;;
50092;SDS011;35974;47.752;10.290;2022-07-19T05:19:09;8.98;;;4.25;;
50092;SDS011;35974;47.752;10.290;2022-07-19T05:21:36;6.88;;;4.40;;
50092;SDS011;35974;47.752;10.290;2022-07-19T05:24:03;4.95;;;4.00;;
50092;SDS011;35974;47.752;10.290;2022-07-19T05:26:30;5.82;;;3.95;;
50092;SDS011;35974;47.752;10.290;2022-07-19T05:28:59;5.97;;;4.03;;
50092;SDS011;35974;47.752;10.290;2022-07-19T05:31:30;6.78;;;4.55;;
50092;SDS011;35974;47.752;10.290;2022-07-19T05:33:57;4.80;;;3.97;;
50092;SDS011;35974;47.752;10.290;2022-07-19T05:36:24;6.65;;;3.75;;
50092;SDS011;35974;47.752;10.290;2022-07-19T05:38:51;9.45;;;4.60;;
50092;SDS011;35974;47.752;10.290;2022-07-19T05:41:19;10.63;;;5.03;;
50092;SDS011;35974;47.752;10.290;2022-07-19T05:43:50;7.10;;;4.70;;
50092;SDS011;35974;47.752;10.290;2022-07-19T05:46:19;5.40;;;4.47;;
50092;SDS011;35974;47.752;10.290;2022-07-19T05:48:46;8.70;;;4.43;;
50092;SDS011;35974;47.752;10.290;2022-07-19T05:51:13;5.53;;;4.57;;
50092;SDS011;35974;47.752;10.290;2022-07-19T05:53:40;7.25;;;4.30;;
50092;SDS011;35974;47.752;10.290;2022-07-19T05:56:07;4.22;;;3.33;;
50092;SDS011;35974;47.752;10.290;2022-07-19T05:58:34;6.63;;;3.67;;
50092;SDS011;35974;47.752;10.290;2022-07-19T06:01:01;4.57;;;3.72;;
50092;SDS011;35974;47.752;10.290;2022-07-19T06:03:47;5.40;;;3.47;;
50092;SDS011;35974;47.752;10.290;2022-07-19T06:06:24;5.32;;;3.67;;
50092;SDS011;35974;47.752;10.290;2022-07-19T06:08:53;7.07;;;3.92;;
50092;SDS011;35974;47.752;10.290;2022-07-19T06:11:19;5.28;;;3.15;;
50092;SDS011;35974;47.752;10.290;2022-07-19T06:13:46;6.68;;;3.50;;
50092;SDS011;35974;47.752;10.290;2022-07-19T06:16:17;8.00;;;3.63;;
50092;SDS011;35974;47.752;10.290;2022-07-19T06:18:46;6.28;;;3.45;;
50092;SDS011;35974;47.752;10.290;2022-07-19T06:21:14;6.43;;;3.15;;
50092;SDS011;35974;47.752;10.290;2022-07-19T06:23:44;9.43;;;4.25;;
50092;SDS011;35974;47.752;10.290;2022-07-19T06:26:12;7.88;;;3.70;;
50092;SDS011;35974;47.752;10.290;2022-07-19T06:28:38;8.48;;;3.60;;
50092;SDS011;35974;47.752;10.290;2022-07-19T06:31:08;11.20;;;3.78;;
50092;SDS011;35974;47.752;10.290;2022-07-19T06:33:38;10.90;;;4.03;;
50092;SDS011;35974;47.752;10.290;2022-07-19T06:36:06;7.80;;;3.53;;
50092;SDS011;35974;47.752;10.290;2022-07-19T06:38:33;10.77;;;3.60;;
50092;SDS011;35974;47.752;10.290;2022-07-19T06:41:00;7.15;;;3.08;;
50092;SDS011;35974;47.752;10.290;2022-07-19T06:43:26;7.03;;;3.53;;
50092;SDS011;35974;47.752;10.290;2022-07-19T06:45:53;7.45;;;3.47;;
50092;SDS011;35974;47.752;10.290;2022-07-19T06:48:21;8.90;;;3.83;;
50092;SDS011;35974;47.752;10.290;2022-07-19T06:50:48;5.75;;;3.40;;
50092;SDS011;35974;47.752;10.290;2022-07-19T06:53:14;6.72;;;3.20;;
50092;SDS011;35974;47.752;10.290;2022-07-19T06:55:41;5.03;;;3.10;;
50092;SDS011;35974;47.752;10.290;2022-07-19T06:58:07;4.35;;;2.78;;
50092;SDS011;35974;47.752;10.290;2022-07-19T07:00:34;4.35;;;2.58;;
50092;SDS011;35974;47.752;10.290;2022-07-19T07:03:00;6.72;;;3.00;;
50092;SDS011;35974;47.752;10.290;2022-07-19T07:05:27;4.53;;;2.92;;
50092;SDS011;35974;47.752;10.290;2022-07-19T07:07:54;4.45;;;2.90;;
50092;SDS011;35974;47.752;10.290;2022-07-19T07:10:20;6.75;;;2.70;;
50092;SDS011;35974;47.752;10.290;2022-07-19T07:12:47;5.78;;;3.10;;
50092;SDS011;35974;47.752;10.290;2022-07-19T07:15:15;4.13;;;3.03;;
50092;SDS011;35974;47.752;10.290;2022-07-19T07:17:42;4.03;;;2.50;;
50092;SDS011;35974;47.752;10.290;2022-07-19T07:20:09;3.95;;;2.60;;
50092;SDS011;35974;47.752;10.290;2022-07-19T07:22:36;4.32;;;2.42;;
50092;SDS011;35974;47.752;10.290;2022-07-19T07:25:03;4.13;;;2.67;;
50092;SDS011;35974;47.752;10.290;2022-07-19T07:27:30;4.50;;;2.92;;
50092;SDS011;35974;47.752;10.290;2022-07-19T07:29:58;4.20;;;2.80;;
50092;SDS011;35974;47.752;10.290;2022-07-19T07:32:25;3.45;;;2.55;;
50092;SDS011;35974;47.752;10.290;2022-07-19T07:34:53;3.67;;;2.80;;
50092;SDS011;35974;47.752;10.290;2022-07-19T07:37:20;6.53;;;2.55;;
50092;SDS011;35974;47.752;10.290;2022-07-19T07:39:47;5.43;;;2.63;;
50092;SDS011;35974;47.752;10.290;2022-07-19T07:42:14;5.22;;;2.60;;
50092;SDS011;35974;47.752;10.290;2022-07-19T07:44:41;6.95;;;2.83;;
50092;SDS011;35974;47.752;10.290;2022-07-19T07:47:07;9.90;;;3.00;;
50092;SDS011;35974;47.752;10.290;2022-07-19T07:49:35;4.05;;;2.50;;
50092;SDS011;35974;47.752;10.290;2022-07-19T07:52:02;5.30;;;2.40;;
50092;SDS011;35974;47.752;10.290;2022-07-19T07:54:29;3.40;;;2.65;;
50092;SDS011;35974;47.752;10.290;2022-07-19T07:56:56;4.90;;;2.45;;
50092;SDS011;35974;47.752;10.290;2022-07-19T07:59:23;3.55;;;2.63;;
50092;SDS011;35974;47.752;10.290;2022-07-19T08:01:49;6.97;;;2.67;;
50092;SDS011;35974;47.752;10.290;2022-07-19T08:04:23;2.78;;;2.45;;
50092;SDS011;35974;47.752;10.290;2022-07-19T08:06:50;4.20;;;2.10;;
50092;SDS011;35974;47.752;10.290;2022-07-19T08:09:17;4.72;;;2.10;;
50092;SDS011;35974;47.752;10.290;2022-07-19T08:11:43;4.38;;;2.08;;
50092;SDS011;35974;47.752;10.290;2022-07-19T08:14:10;2.83;;;1.80;;
50092;SDS011;35974;47.752;10.290;2022-07-19T08:16:36;2.70;;;1.60;;
50092;SDS011;35974;47.752;10.290;2022-07-19T08:19:03;2.55;;;1.80;;
50092;SDS011;35974;47.752;10.290;2022-07-19T08:21:30;3.53;;;1.70;;
50092;SDS011;35974;47.752;10.290;2022-07-19T08:23:57;4.95;;;2.03;;
50092;SDS011;35974;47.752;10.290;2022-07-19T08:26:23;4.72;;;1.60;;
50092;SDS011;35974;47.752;10.290;2022-07-19T08:28:50;1.80;;;1.70;;
50092;SDS011;35974;47.752;10.290;2022-07-19T08:31:16;3.45;;;1.50;;
50092;SDS011;35974;47.752;10.290;2022-07-19T08:33:43;1.90;;;1.70;;
50092;SDS011;35974;47.752;10.290;2022-07-19T08:36:10;2.70;;;2.03;;
50092;SDS011;35974;47.752;10.290;2022-07-19T08:38:37;3.10;;;1.70;;
50092;SDS011;35974;47.752;10.290;2022-07-19T08:41:05;3.65;;;1.88;;
50092;SDS011;35974;47.752;10.290;2022-07-19T08:43:32;4.85;;;2.00;;
50092;SDS011;35974;47.752;10.290;2022-07-19T08:46:00;3.72;;;1.70;;
50092;SDS011;35974;47.752;10.290;2022-07-19T08:48:34;5.47;;;1.73;;
50092;SDS011;35974;47.752;10.290;2022-07-19T08:51:12;4.85;;;1.90;;
50092;SDS011;35974;47.752;10.290;2022-07-19T08:53:39;2.72;;;1.60;;
50092;SDS011;35974;47.752;10.290;2022-07-19T08:56:07;3.47;;;1.80;;
50092;SDS011;35974;47.752;10.290;2022-07-19T08:58:53;6.38;;;1.98;;
50092;SDS011;35974;47.752;10.290;2022-07-19T09:01:20;4.93;;;2.03;;
50092;SDS011;35974;47.752;10.290;2022-07-19T09:04:06;3.83;;;1.65;;
50092;SDS011;35974;47.752;10.290;2022-07-19T09:06:38;3.75;;;1.70;;
50092;SDS011;35974;47.752;10.290;2022-07-19T09:09:15;1.77;;;1.63;;
50092;SDS011;35974;47.752;10.290;2022-07-19T09:11:44;3.25;;;1.50;;
50092;SDS011;35974;47.752;10.290;2022-07-19T09:14:18;2.45;;;1.40;;
50092;SDS011;35974;47.752;10.290;2022-07-19T09:16:59;3.42;;;1.98;;
50092;SDS011;35974;47.752;10.290;2022-07-19T09:19:44;2.67;;;1.98;;
50092;SDS011;35974;47.752;10.290;2022-07-19T09:22:16;3.83;;;1.80;;
50092;SDS011;35974;47.752;10.290;2022-07-19T09:24:45;24.35;;;4.25;;
50092;SDS011;35974;47.752;10.290;2022-07-19T09:27:16;1.73;;;1.60;;
50092;SDS011;35974;47.752;10.290;2022-07-19T09:29:45;4.13;;;1.67;;
50092;SDS011;35974;47.752;10.290;2022-07-19T09:32:13;2.40;;;1.70;;
50092;SDS011;35974;47.752;10.290;2022-07-19T09:34:58;2.78;;;1.92;;
50092;SDS011;35974;47.752;10.290;2022-07-19T09:37:31;5.07;;;1.80;;
50092;SDS011;35974;47.752;10.290;2022-07-19T09:40:00;4.03;;;2.00;;
50092;SDS011;35974;47.752;10.290;2022-07-19T09:42:39;4.10;;;1.92;;
50092;SDS011;35974;47.752;10.290;2022-07-19T09:45:09;4.05;;;2.20;;
50092;SDS011;35974;47.752;10.290;2022-07-19T09:47:38;4.82;;;1.50;;
50092;SDS011;35974;47.752;10.290;2022-07-19T09:50:11;2.83;;;1.55;;
50092;SDS011;35974;47.752;10.290;2022-07-19T09:52:41;2.97;;;1.58;;
50092;SDS011;35974;47.752;10.290;2022-07-19T09:55:13;3.92;;;1.80;;
50092;SDS011;35974;47.752;10.290;2022-07-19T09:57:43;3.75;;;1.80;;
50092;SDS011;35974;47.752;10.290;2022-07-19T10:00:12;3.65;;;1.60;;
50092;SDS011;35974;47.752;10.290;2022-07-19T10:02:41;5.28;;;1.90;;
50092;SDS011;35974;47.752;10.290;2022-07-19T10:05:10;4.72;;;1.60;;
50092;SDS011;35974;47.752;10.290;2022-07-19T10:07:38;4.28;;;1.65;;
50092;SDS011;35974;47.752;10.290;2022-07-19T10:10:07;3.20;;;1.50;;
50092;SDS011;35974;47.752;10.290;2022-07-19T10:12:39;3.90;;;1.58;;
50092;SDS011;35974;47.752;10.290;2022-07-19T10:15:07;4.30;;;1.75;;
50092;SDS011;35974;47.752;10.290;2022-07-19T10:17:54;3.42;;;1.70;;
50092;SDS011;35974;47.752;10.290;2022-07-19T10:20:29;3.60;;;1.40;;
50092;SDS011;35974;47.752;10.290;2022-07-19T10:22:57;7.07;;;1.83;;
50092;SDS011;35974;47.752;10.290;2022-07-19T10:25:27;5.32;;;1.85;;
50092;SDS011;35974;47.752;10.290;2022-07-19T10:28:04;1.52;;;1.20;;
50092;SDS011;35974;47.752;10.290;2022-07-19T10:30:39;3.33;;;1.42;;
50092;SDS011;35974;47.752;10.290;2022-07-19T10:33:25;3.13;;;1.45;;
50092;SDS011;35974;47.752;10.290;2022-07-19T10:35:57;6.00;;;1.48;;
50092;SDS011;35974;47.752;10.290;2022-07-19T10:38:23;2.55;;;1.50;;
50092;SDS011;35974;47.752;10.290;2022-07-19T10:40:51;4.68;;;1.35;;
50092;SDS011;35974;47.752;10.290;2022-07-19T10:43:23;7.95;;;1.42;;
50092;SDS011;35974;47.752;10.290;2022-07-19T10:48:34;1.88;;;1.27;;
50092;SDS011;35974;47.752;10.290;2022-07-19T10:51:26;2.40;;;1.38;;
50092;SDS011;35974;47.752;10.290;2022-07-19T10:53:55;3.13;;;1.33;;
50092;SDS011;35974;47.752;10.290;2022-07-19T10:56:26;5.18;;;1.75;;
50092;SDS011;35974;47.752;10.290;2022-07-19T10:58:58;2.58;;;1.70;;
50092;SDS011;35974;47.752;10.290;2022-07-19T11:01:27;1.95;;;1.30;;
50092;SDS011;35974;47.752;10.290;2022-07-19T11:04:21;2.65;;;1.25;;
50092;SDS011;35974;47.752;10.290;2022-07-19T11:09:39;2.33;;;1.30;;
50092;SDS011;35974;47.752;10.290;2022-07-19T11:12:18;5.18;;;1.58;;
50092;SDS011;35974;47.752;10.290;2022-07-19T11:14:49;3.35;;;1.80;;
50092;SDS011;35974;47.752;10.290;2022-07-19T11:20:04;3.30;;;1.52;;
50092;SDS011;35974;47.752;10.290;2022-07-19T11:22:34;4.50;;;1.92;;
50092;SDS011;35974;47.752;10.290;2022-07-19T11:25:02;2.13;;;1.70;;
50092;SDS011;35974;47.752;10.290;2022-07-19T11:27:31;4.38;;;2.08;;
50092;SDS011;35974;47.752;10.290;2022-07-19T11:29:59;7.10;;;2.05;;
50092;SDS011;35974;47.752;10.290;2022-07-19T11:32:28;6.00;;;1.90;;
50092;SDS011;35974;47.752;10.290;2022-07-19T11:34:55;4.38;;;1.58;;
50092;SDS011;35974;47.752;10.290;2022-07-19T11:37:23;2.17;;;1.65;;
50092;SDS011;35974;47.752;10.290;2022-07-19T11:39:51;5.85;;;2.05;;
50092;SDS011;35974;47.752;10.290;2022-07-19T11:45:45;5.20;;;1.95;;
50092;SDS011;35974;47.752;10.290;2022-07-19T11:48:28;6.70;;;2.30;;
50092;SDS011;35974;47.752;10.290;2022-07-19T11:53:37;3.78;;;1.90;;
50092;SDS011;35974;47.752;10.290;2022-07-19T11:56:15;5.75;;;2.00;;
50092;SDS011;35974;47.752;10.290;2022-07-19T11:58:44;6.55;;;2.10;;
50092;SDS011;35974;47.752;10.290;2022-07-19T12:01:12;4.57;;;2.00;;
50092;SDS011;35974;47.752;10.290;2022-07-19T12:03:39;4.57;;;1.88;;
50092;SDS011;35974;47.752;10.290;2022-07-19T12:06:07;3.85;;;1.90;;
50092;SDS011;35974;47.752;10.290;2022-07-19T12:08:35;4.95;;;2.10;;
50092;SDS011;35974;47.752;10.290;2022-07-19T12:11:18;5.03;;;1.75;;
50092;SDS011;35974;47.752;10.290;2022-07-19T12:13:46;7.50;;;1.90;;
50092;SDS011;35974;47.752;10.290;2022-07-19T12:16:15;8.13;;;2.00;;
50092;SDS011;35974;47.752;10.290;2022-07-19T12:18:53;6.47;;;2.10;;
50092;SDS011;35974;47.752;10.290;2022-07-19T12:21:27;5.75;;;2.13;;
50092;SDS011;35974;47.752;10.290;2022-07-19T12:29:23;4.20;;;1.90;;
50092;SDS011;35974;47.752;10.290;2022-07-19T12:31:56;4.53;;;1.88;;
50092;SDS011;35974;47.752;10.290;2022-07-19T12:34:29;6.68;;;2.35;;
50092;SDS011;35974;47.752;10.290;2022-07-19T12:36:56;4.57;;;1.90;;
50092;SDS011;35974;47.752;10.290;2022-07-19T12:39:25;5.32;;;2.20;;
50092;SDS011;35974;47.752;10.290;2022-07-19T12:44:27;3.88;;;1.83;;
50092;SDS011;35974;47.752;10.290;2022-07-19T12:46:56;5.78;;;2.50;;
50092;SDS011;35974;47.752;10.290;2022-07-19T12:49:45;7.25;;;2.25;;
50092;SDS011;35974;47.752;10.290;2022-07-19T12:52:13;8.73;;;2.25;;
50092;SDS011;35974;47.752;10.290;2022-07-19T12:54:39;10.38;;;2.70;;
50092;SDS011;35974;47.752;10.290;2022-07-19T12:57:06;8.68;;;2.65;;
50092;SDS011;35974;47.752;10.290;2022-07-19T12:59:32;19.95;;;3.90;;
50092;SDS011;35974;47.752;10.290;2022-07-19T13:02:06;16.02;;;3.08;;
50092;SDS011;35974;47.752;10.290;2022-07-19T13:04:35;32.78;;;6.10;;
50092;SDS011;35974;47.752;10.290;2022-07-19T13:07:02;73.55;;;10.20;;
50092;SDS011;35974;47.752;10.290;2022-07-19T13:09:29;47.95;;;6.15;;
50092;SDS011;35974;47.752;10.290;2022-07-19T13:11:57;12.40;;;2.58;;
50092;SDS011;35974;47.752;10.290;2022-07-19T13:14:24;20.55;;;3.47;;
50092;SDS011;35974;47.752;10.290;2022-07-19T13:16:50;8.32;;;2.10;;
50092;SDS011;35974;47.752;10.290;2022-07-19T13:19:17;7.10;;;2.30;;
50092;SDS011;35974;47.752;10.290;2022-07-19T13:21:44;7.80;;;2.00;;
50092;SDS011;35974;47.752;10.290;2022-07-19T13:24:10;7.50;;;1.95;;
50092;SDS011;35974;47.752;10.290;2022-07-19T13:26:57;6.22;;;2.00;;
50092;SDS011;35974;47.752;10.290;2022-07-19T13:29:24;29.52;;;5.00;;
50092;SDS011;35974;47.752;10.290;2022-07-19T13:31:57;28.13;;;4.68;;
50092;SDS011;35974;47.752;10.290;2022-07-19T13:34:28;42.97;;;5.85;;
50092;SDS011;35974;47.752;10.290;2022-07-19T13:36:54;73.22;;;10.60;;
50092;SDS011;35974;47.752;10.290;2022-07-19T13:39:22;13.35;;;2.97;;
50092;SDS011;35974;47.752;10.290;2022-07-19T13:41:48;5.70;;;2.08;;
50092;SDS011;35974;47.752;10.290;2022-07-19T13:44:17;5.68;;;2.45;;
50092;SDS011;35974;47.752;10.290;2022-07-19T13:46:43;4.25;;;1.90;;
50092;SDS011;35974;47.752;10.290;2022-07-19T13:49:10;4.00;;;1.90;;
50092;SDS011;35974;47.752;10.290;2022-07-19T13:51:37;7.88;;;2.20;;
50092;SDS011;35974;47.752;10.290;2022-07-19T13:54:06;4.97;;;1.83;;
50092;SDS011;35974;47.752;10.290;2022-07-19T13:56:33;3.97;;;1.95;;
50092;SDS011;35974;47.752;10.290;2022-07-19T13:59:00;4.55;;;1.90;;
50092;SDS011;35974;47.752;10.290;2022-07-19T14:01:29;4.70;;;1.90;;
50092;SDS011;35974;47.752;10.290;2022-07-19T14:04:11;10.70;;;1.80;;
50092;SDS011;35974;47.752;10.290;2022-07-19T14:06:47;5.88;;;1.90;;
50092;SDS011;35974;47.752;10.290;2022-07-19T14:09:14;8.32;;;2.20;;
50092;SDS011;35974;47.752;10.290;2022-07-19T14:11:40;6.53;;;2.00;;
50092;SDS011;35974;47.752;10.290;2022-07-19T14:14:07;4.07;;;1.85;;
50092;SDS011;35974;47.752;10.290;2022-07-19T14:16:33;4.20;;;1.73;;
50092;SDS011;35974;47.752;10.290;2022-07-19T14:19:00;6.43;;;1.92;;
50092;SDS011;35974;47.752;10.290;2022-07-19T14:21:26;4.65;;;2.03;;
50092;SDS011;35974;47.752;10.290;2022-07-19T14:23:56;1.98;;;1.60;;
50092;SDS011;35974;47.752;10.290;2022-07-19T14:26:23;8.50;;;2.35;;
50092;SDS011;35974;47.752;10.290;2022-07-19T14:28:49;5.50;;;2.10;;
50092;SDS011;35974;47.752;10.290;2022-07-19T14:31:17;8.77;;;1.73;;
50092;SDS011;35974;47.752;10.290;2022-07-19T14:33:44;5.15;;;1.77;;
50092;SDS011;35974;47.752;10.290;2022-07-19T14:36:10;6.20;;;1.92;;
50092;SDS011;35974;47.752;10.290;2022-07-19T14:38:37;10.13;;;2.22;;
50092;SDS011;35974;47.752;10.290;2022-07-19T14:41:03;4.72;;;1.67;;
50092;SDS011;35974;47.752;10.290;2022-07-19T14:43:30;7.03;;;2.20;;
50092;SDS011;35974;47.752;10.290;2022-07-19T14:45:56;8.57;;;2.47;;
50092;SDS011;35974;47.752;10.290;2022-07-19T14:48:23;6.70;;;1.90;;
50092;SDS011;35974;47.752;10.290;2022-07-19T14:50:50;4.22;;;1.75;;
50092;SDS011;35974;47.752;10.290;2022-07-19T14:53:16;5.75;;;2.00;;
50092;SDS011;35974;47.752;10.290;2022-07-19T14:55:43;4.38;;;1.80;;
50092;SDS011;35974;47.752;10.290;2022-07-19T14:58:09;5.28;;;1.83;;
50092;SDS011;35974;47.752;10.290;2022-07-19T15:00:37;5.78;;;1.90;;
50092;SDS011;35974;47.752;10.290;2022-07-19T15:03:05;6.13;;;1.88;;
50092;SDS011;35974;47.752;10.290;2022-07-19T15:05:33;8.75;;;2.15;;